sensor_id;sensor_type;location;lat;lon;timestamp;P1;durP1;ratioP1;P2;durP2;ratioP2
65535;SDS011;52145;49.342;9.116;2023-03-01T00:02:02;15.68;;;9.60;;
65535;SDS011;52145;49.342;9.116;2023-03-01T00:04:27;19.35;;;9.85;;
65535;SDS011;52145;49.342;9.116;2023-03-01T00:06:53;19.05;;;9.15;;
65535;SDS011;52145;49.342;9.116;2023-03-01T00:09:19;18.67;;;9.20;;
65535;SDS011;52145;49.342;9.116;2023-03-01T00:11:45;17.33;;;9.68;;
65535;SDS011;52145;49.342;9.116;2023-03-01T00:14:11;15.18;;;9.13;;
65535;SDS011;52145;49.342;9.116;2023-03-01T00:16:38;17.95;;;10.73;;
65535;SDS011;52145;49.342;9.116;2023-03-01T00:19:05;18.02;;;9.23;;
65535;SDS011;52145;49.342;9.116;2023-03-01T00:21:32;17.25;;;9.63;;
65535;SDS011;52145;49.342;9.116;2023-03-01T00:24:00;17.20;;;9.65;;
65535;SDS011;52145;49.342;9.116;2023-03-01T00:26:26;17.35;;;9.85;;
65535;SDS011;52145;49.342;9.116;2023-03-01T00:28:52;19.38;;;10.32;;
65535;SDS011;52145;49.342;9.116;2023-03-01T00:31:20;17.30;;;9.68;;
65535;SDS011;52145;49.342;9.116;2023-03-01T00:33:48;19.67;;;10.20;;
65535;SDS011;52145;49.342;9.116;2023-03-01T00:36:18;17.58;;;10.23;;
65535;SDS011;52145;49.342;9.116;2023-03-01T00:38:44;19.38;;;10.75;;
65535;SDS011;52145;49.342;9.116;2023-03-01T00:41:11;18.92;;;10.82;;
65535;SDS011;52145;49.342;9.116;2023-03-01T00:43:39;17.25;;;10.68;;
65535;SDS011;52145;49.342;9.116;2023-03-01T00:46:10;19.65;;;10.23;;
65535;SDS011;52145;49.342;9.116;2023-03-01T00:48:37;16.83;;;9.50;;
65535;SDS011;52145;49.342;9.116;2023-03-01T00:51:04;19.55;;;10.43;;
65535;SDS011;52145;49.342;9.116;2023-03-01T00:53:34;18.27;;;9.77;;
65535;SDS011;52145;49.342;9.116;2023-03-01T00:56:00;20.75;;;10.60;;
65535;SDS011;52145;49.342;9.116;2023-03-01T00:58:26;21.75;;;11.13;;
65535;SDS011;52145;49.342;9.116;2023-03-01T01:00:51;18.45;;;10.52;;
65535;SDS011;52145;49.342;9.116;2023-03-01T01:03:19;17.90;;;9.77;;
65535;SDS011;52145;49.342;9.116;2023-03-01T01:05:45;16.20;;;10.15;;
65535;SDS011;52145;49.342;9.116;2023-03-01T01:08:11;18.88;;;10.77;;
65535;SDS011;52145;49.342;9.116;2023-03-01T01:10:36;19.55;;;10.50;;
65535;SDS011;52145;49.342;9.116;2023-03-01T01:13:02;18.88;;;10.55;;
65535;SDS011;52145;49.342;9.116;2023-03-01T01:15:29;16.95;;;10.05;;
65535;SDS011;52145;49.342;9.116;2023-03-01T01:17:57;18.00;;;10.38;;
65535;SDS011;52145;49.342;9.116;2023-03-01T01:20:23;22.08;;;10.60;;
65535;SDS011;52145;49.342;9.116;2023-03-01T01:22:48;19.45;;;10.23;;
65535;SDS011;52145;49.342;9.116;2023-03-01T01:25:14;19.70;;;11.45;;
65535;SDS011;52145;49.342;9.116;2023-03-01T01:27:39;19.00;;;10.30;;
65535;SDS011;52145;49.342;9.116;2023-03-01T01:30:05;18.63;;;10.52;;
65535;SDS011;52145;49.342;9.116;2023-03-01T01:32:31;21.45;;;11.13;;
65535;SDS011;52145;49.342;9.116;2023-03-01T01:34:57;21.33;;;11.27;;
65535;SDS011;52145;49.342;9.116;2023-03-01T01:37:22;20.88;;;10.85;;
65535;SDS011;52145;49.342;9.116;2023-03-01T01:39:48;19.33;;;10.93;;
65535;SDS011;52145;49.342;9.116;2023-03-01T01:42:17;16.42;;;11.07;;
65535;SDS011;52145;49.342;9.116;2023-03-01T01:44:46;18.15;;;11.65;;
65535;SDS011;52145;49.342;9.116;2023-03-01T01:47:13;19.63;;;10.45;;
65535;SDS011;52145;49.342;9.116;2023-03-01T01:49:43;22.48;;;11.57;;
65535;SDS011;52145;49.342;9.116;2023-03-01T01:52:20;22.40;;;11.20;;
65535;SDS011;52145;49.342;9.116;2023-03-01T01:54:51;19.00;;;11.43;;
65535;SDS011;52145;49.342;9.116;2023-03-01T01:57:26;21.55;;;11.27;;
65535;SDS011;52145;49.342;9.116;2023-03-01T02:00:03;20.42;;;12.30;;
65535;SDS011;52145;49.342;9.116;2023-03-01T02:02:31;21.73;;;11.63;;
65535;SDS011;52145;49.342;9.116;2023-03-01T02:05:02;19.95;;;11.20;;
65535;SDS011;52145;49.342;9.116;2023-03-01T02:07:48;20.70;;;10.77;;
65535;SDS011;52145;49.342;9.116;2023-03-01T02:10:14;19.13;;;10.60;;
65535;SDS011;52145;49.342;9.116;2023-03-01T02:12:40;20.30;;;12.23;;
65535;SDS011;52145;49.342;9.116;2023-03-01T02:15:07;20.23;;;11.85;;
65535;SDS011;52145;49.342;9.116;2023-03-01T02:17:32;20.52;;;11.25;;
65535;SDS011;52145;49.342;9.116;2023-03-01T02:22:25;19.85;;;11.48;;
65535;SDS011;52145;49.342;9.116;2023-03-01T02:28:18;24.08;;;11.75;;
65535;SDS011;52145;49.342;9.116;2023-03-01T02:31:11;20.38;;;10.73;;
65535;SDS011;52145;49.342;9.116;2023-03-01T02:33:59;22.98;;;12.02;;
65535;SDS011;52145;49.342;9.116;2023-03-01T02:36:30;19.33;;;10.82;;
65535;SDS011;52145;49.342;9.116;2023-03-01T02:39:01;20.48;;;11.52;;
65535;SDS011;52145;49.342;9.116;2023-03-01T02:41:30;20.65;;;10.95;;
65535;SDS011;52145;49.342;9.116;2023-03-01T02:43:59;22.67;;;11.68;;
65535;SDS011;52145;49.342;9.116;2023-03-01T02:46:25;22.50;;;11.35;;
65535;SDS011;52145;49.342;9.116;2023-03-01T02:48:52;20.58;;;11.82;;
65535;SDS011;52145;49.342;9.116;2023-03-01T02:56:45;21.52;;;11.02;;
65535;SDS011;52145;49.342;9.116;2023-03-01T02:59:13;20.95;;;10.93;;
65535;SDS011;52145;49.342;9.116;2023-03-01T03:01:41;18.95;;;10.93;;
65535;SDS011;52145;49.342;9.116;2023-03-01T03:04:07;22.08;;;12.65;;
65535;SDS011;52145;49.342;9.116;2023-03-01T03:06:36;21.55;;;12.00;;
65535;SDS011;52145;49.342;9.116;2023-03-01T03:09:02;20.45;;;11.85;;
65535;SDS011;52145;49.342;9.116;2023-03-01T03:11:29;23.30;;;12.50;;
65535;SDS011;52145;49.342;9.116;2023-03-01T03:13:55;20.90;;;11.27;;
65535;SDS011;52145;49.342;9.116;2023-03-01T03:16:21;22.33;;;12.27;;
65535;SDS011;52145;49.342;9.116;2023-03-01T03:18:47;22.38;;;11.63;;
65535;SDS011;52145;49.342;9.116;2023-03-01T03:21:14;22.33;;;12.32;;
65535;SDS011;52145;49.342;9.116;2023-03-01T03:23:40;21.90;;;11.90;;
65535;SDS011;52145;49.342;9.116;2023-03-01T03:26:05;23.08;;;12.55;;
65535;SDS011;52145;49.342;9.116;2023-03-01T03:28:31;21.42;;;11.95;;
65535;SDS011;52145;49.342;9.116;2023-03-01T03:30:58;21.33;;;11.15;;
65535;SDS011;52145;49.342;9.116;2023-03-01T03:33:28;21.27;;;11.25;;
65535;SDS011;52145;49.342;9.116;2023-03-01T03:35:54;27.75;;;11.88;;
65535;SDS011;52145;49.342;9.116;2023-03-01T03:38:20;22.45;;;12.57;;
65535;SDS011;52145;49.342;9.116;2023-03-01T03:41:00;24.33;;;11.90;;
65535;SDS011;52145;49.342;9.116;2023-03-01T03:43:27;21.35;;;11.57;;
65535;SDS011;52145;49.342;9.116;2023-03-01T03:45:54;21.58;;;11.85;;
65535;SDS011;52145;49.342;9.116;2023-03-01T03:48:21;23.67;;;12.35;;
65535;SDS011;52145;49.342;9.116;2023-03-01T03:50:49;24.23;;;12.25;;
65535;SDS011;52145;49.342;9.116;2023-03-01T03:53:16;24.48;;;12.90;;
65535;SDS011;52145;49.342;9.116;2023-03-01T03:55:42;20.27;;;12.13;;
65535;SDS011;52145;49.342;9.116;2023-03-01T03:58:09;23.02;;;12.57;;
65535;SDS011;52145;49.342;9.116;2023-03-01T04:00:40;22.23;;;11.38;;
65535;SDS011;52145;49.342;9.116;2023-03-01T04:03:08;22.85;;;11.15;;
65535;SDS011;52145;49.342;9.116;2023-03-01T04:05:35;22.77;;;11.95;;
65535;SDS011;52145;49.342;9.116;2023-03-01T04:08:01;20.77;;;11.55;;
65535;SDS011;52145;49.342;9.116;2023-03-01T04:10:27;20.98;;;11.70;;
65535;SDS011;52145;49.342;9.116;2023-03-01T04:12:58;23.20;;;12.63;;
65535;SDS011;52145;49.342;9.116;2023-03-01T04:15:24;21.85;;;12.18;;
65535;SDS011;52145;49.342;9.116;2023-03-01T04:17:52;20.95;;;11.05;;
65535;SDS011;52145;49.342;9.116;2023-03-01T04:20:19;23.15;;;12.43;;
65535;SDS011;52145;49.342;9.116;2023-03-01T04:22:56;21.77;;;12.52;;
65535;SDS011;52145;49.342;9.116;2023-03-01T04:25:35;22.23;;;11.98;;
65535;SDS011;52145;49.342;9.116;2023-03-01T04:28:04;20.05;;;12.20;;
65535;SDS011;52145;49.342;9.116;2023-03-01T04:30:30;23.00;;;12.80;;
65535;SDS011;52145;49.342;9.116;2023-03-01T04:33:00;23.17;;;12.23;;
65535;SDS011;52145;49.342;9.116;2023-03-01T04:35:32;22.08;;;11.73;;
65535;SDS011;52145;49.342;9.116;2023-03-01T04:37:59;24.27;;;12.95;;
65535;SDS011;52145;49.342;9.116;2023-03-01T04:40:25;23.52;;;12.50;;
65535;SDS011;52145;49.342;9.116;2023-03-01T04:42:50;24.65;;;13.07;;
65535;SDS011;52145;49.342;9.116;2023-03-01T04:45:16;24.77;;;13.20;;
65535;SDS011;52145;49.342;9.116;2023-03-01T04:47:42;24.00;;;12.68;;
65535;SDS011;52145;49.342;9.116;2023-03-01T04:50:09;27.65;;;13.25;;
65535;SDS011;52145;49.342;9.116;2023-03-01T04:52:35;22.58;;;12.30;;
65535;SDS011;52145;49.342;9.116;2023-03-01T04:55:01;21.40;;;12.85;;
65535;SDS011;52145;49.342;9.116;2023-03-01T04:57:28;23.08;;;13.50;;
65535;SDS011;52145;49.342;9.116;2023-03-01T04:59:54;22.80;;;12.30;;
65535;SDS011;52145;49.342;9.116;2023-03-01T05:02:19;23.50;;;12.77;;
65535;SDS011;52145;49.342;9.116;2023-03-01T05:04:45;24.77;;;12.48;;
65535;SDS011;52145;49.342;9.116;2023-03-01T05:07:10;27.02;;;14.15;;
65535;SDS011;52145;49.342;9.116;2023-03-01T05:09:37;23.10;;;11.70;;
65535;SDS011;52145;49.342;9.116;2023-03-01T05:12:03;23.42;;;12.50;;
65535;SDS011;52145;49.342;9.116;2023-03-01T05:14:29;22.52;;;12.60;;
65535;SDS011;52145;49.342;9.116;2023-03-01T05:16:55;26.83;;;13.50;;
65535;SDS011;52145;49.342;9.116;2023-03-01T05:19:28;25.45;;;14.15;;
65535;SDS011;52145;49.342;9.116;2023-03-01T05:21:55;23.80;;;13.27;;
65535;SDS011;52145;49.342;9.116;2023-03-01T05:24:29;20.52;;;11.77;;
65535;SDS011;52145;49.342;9.116;2023-03-01T05:26:55;27.02;;;13.55;;
65535;SDS011;52145;49.342;9.116;2023-03-01T05:29:21;25.50;;;13.55;;
65535;SDS011;52145;49.342;9.116;2023-03-01T05:31:55;24.42;;;13.07;;
65535;SDS011;52145;49.342;9.116;2023-03-01T05:34:26;22.40;;;12.48;;
65535;SDS011;52145;49.342;9.116;2023-03-01T05:36:53;24.50;;;13.20;;
65535;SDS011;52145;49.342;9.116;2023-03-01T05:39:20;23.48;;;12.93;;
65535;SDS011;52145;49.342;9.116;2023-03-01T05:41:47;23.05;;;13.15;;
65535;SDS011;52145;49.342;9.116;2023-03-01T05:44:16;23.88;;;13.30;;
65535;SDS011;52145;49.342;9.116;2023-03-01T05:46:41;29.75;;;14.50;;
65535;SDS011;52145;49.342;9.116;2023-03-01T05:49:07;31.17;;;13.90;;
65535;SDS011;52145;49.342;9.116;2023-03-01T07:57:00;26.27;;;13.40;;
65535;SDS011;52145;49.342;9.116;2023-03-01T07:59:26;25.77;;;13.45;;
65535;SDS011;52145;49.342;9.116;2023-03-01T08:01:54;24.50;;;13.30;;
65535;SDS011;52145;49.342;9.116;2023-03-01T08:04:20;26.55;;;13.07;;
65535;SDS011;52145;49.342;9.116;2023-03-01T08:06:46;28.20;;;14.50;;
65535;SDS011;52145;49.342;9.116;2023-03-01T08:09:11;22.58;;;13.30;;
65535;SDS011;52145;49.342;9.116;2023-03-01T08:11:37;25.98;;;13.82;;
65535;SDS011;52145;49.342;9.116;2023-03-01T08:14:02;21.45;;;12.10;;
65535;SDS011;52145;49.342;9.116;2023-03-01T08:16:28;23.10;;;12.65;;
65535;SDS011;52145;49.342;9.116;2023-03-01T08:18:54;23.58;;;13.13;;
65535;SDS011;52145;49.342;9.116;2023-03-01T08:21:21;25.23;;;13.18;;
65535;SDS011;52145;49.342;9.116;2023-03-01T08:23:47;26.98;;;13.40;;
65535;SDS011;52145;49.342;9.116;2023-03-01T08:26:14;23.35;;;13.18;;
65535;SDS011;52145;49.342;9.116;2023-03-01T08:28:42;22.85;;;13.35;;
65535;SDS011;52145;49.342;9.116;2023-03-01T08:33:40;24.42;;;13.27;;
65535;SDS011;52145;49.342;9.116;2023-03-01T08:36:06;28.02;;;13.65;;
65535;SDS011;52145;49.342;9.116;2023-03-01T08:38:33;23.27;;;12.90;;
65535;SDS011;52145;49.342;9.116;2023-03-01T08:40:59;22.27;;;12.93;;
65535;SDS011;52145;49.342;9.116;2023-03-01T08:43:25;25.33;;;13.88;;
65535;SDS011;52145;49.342;9.116;2023-03-01T08:45:51;26.83;;;14.15;;
65535;SDS011;52145;49.342;9.116;2023-03-01T08:48:17;28.15;;;14.98;;
65535;SDS011;52145;49.342;9.116;2023-03-01T08:50:42;24.50;;;14.20;;
65535;SDS011;52145;49.342;9.116;2023-03-01T08:53:07;23.95;;;13.18;;
65535;SDS011;52145;49.342;9.116;2023-03-01T08:55:33;24.73;;;14.35;;
65535;SDS011;52145;49.342;9.116;2023-03-01T08:57:58;25.02;;;13.95;;
65535;SDS011;52145;49.342;9.116;2023-03-01T09:00:24;26.08;;;13.38;;
65535;SDS011;52145;49.342;9.116;2023-03-01T09:02:50;23.05;;;13.45;;
65535;SDS011;52145;49.342;9.116;2023-03-01T09:05:15;27.35;;;13.35;;
65535;SDS011;52145;49.342;9.116;2023-03-01T09:07:41;29.85;;;13.23;;
65535;SDS011;52145;49.342;9.116;2023-03-01T09:10:06;24.90;;;14.40;;
65535;SDS011;52145;49.342;9.116;2023-03-01T09:12:32;22.58;;;12.75;;
65535;SDS011;52145;49.342;9.116;2023-03-01T09:14:58;24.20;;;13.77;;
65535;SDS011;52145;49.342;9.116;2023-03-01T09:17:24;21.67;;;13.95;;
65535;SDS011;52145;49.342;9.116;2023-03-01T09:19:49;25.35;;;14.15;;
65535;SDS011;52145;49.342;9.116;2023-03-01T09:22:15;24.00;;;13.55;;
65535;SDS011;52145;49.342;9.116;2023-03-01T09:24:40;25.30;;;14.07;;
65535;SDS011;52145;49.342;9.116;2023-03-01T09:27:06;25.95;;;14.65;;
65535;SDS011;52145;49.342;9.116;2023-03-01T09:29:34;24.30;;;13.85;;
65535;SDS011;52145;49.342;9.116;2023-03-01T09:32:03;26.85;;;14.77;;
65535;SDS011;52145;49.342;9.116;2023-03-01T09:34:29;21.48;;;14.35;;
65535;SDS011;52145;49.342;9.116;2023-03-01T09:36:54;24.80;;;14.35;;
65535;SDS011;52145;49.342;9.116;2023-03-01T09:39:21;24.02;;;13.43;;
65535;SDS011;52145;49.342;9.116;2023-03-01T09:44:38;21.38;;;13.27;;
65535;SDS011;52145;49.342;9.116;2023-03-01T09:47:18;22.75;;;13.85;;
65535;SDS011;52145;49.342;9.116;2023-03-01T09:49:58;27.95;;;14.82;;
65535;SDS011;52145;49.342;9.116;2023-03-01T09:52:37;25.13;;;13.68;;
65535;SDS011;52145;49.342;9.116;2023-03-01T09:55:12;23.48;;;14.18;;
65535;SDS011;52145;49.342;9.116;2023-03-01T10:00:47;24.95;;;14.65;;
65535;SDS011;52145;49.342;9.116;2023-03-01T10:03:20;25.42;;;13.63;;
65535;SDS011;52145;49.342;9.116;2023-03-01T10:05:56;25.30;;;14.48;;
65535;SDS011;52145;49.342;9.116;2023-03-01T10:08:30;24.88;;;14.43;;
65535;SDS011;52145;49.342;9.116;2023-03-01T10:10:58;23.08;;;12.95;;
65535;SDS011;52145;49.342;9.116;2023-03-01T10:13:27;22.67;;;14.27;;
65535;SDS011;52145;49.342;9.116;2023-03-01T10:15:56;20.90;;;13.35;;
65535;SDS011;52145;49.342;9.116;2023-03-01T10:18:27;24.45;;;13.73;;
65535;SDS011;52145;49.342;9.116;2023-03-01T10:23:31;22.95;;;14.05;;
65535;SDS011;52145;49.342;9.116;2023-03-01T10:31:24;22.23;;;14.18;;
65535;SDS011;52145;49.342;9.116;2023-03-01T10:33:54;24.13;;;14.63;;
65535;SDS011;52145;49.342;9.116;2023-03-01T10:36:22;23.73;;;13.65;;
65535;SDS011;52145;49.342;9.116;2023-03-01T10:41:19;21.30;;;13.52;;
65535;SDS011;52145;49.342;9.116;2023-03-01T10:43:49;24.08;;;13.20;;
65535;SDS011;52145;49.342;9.116;2023-03-01T10:51:45;21.83;;;13.50;;
65535;SDS011;52145;49.342;9.116;2023-03-01T10:56:47;28.73;;;14.52;;
65535;SDS011;52145;49.342;9.116;2023-03-01T11:04:34;21.67;;;13.63;;
65535;SDS011;52145;49.342;9.116;2023-03-01T11:07:00;21.73;;;14.00;;
65535;SDS011;52145;49.342;9.116;2023-03-01T11:09:30;26.23;;;13.90;;
65535;SDS011;52145;49.342;9.116;2023-03-01T11:14:32;20.85;;;12.85;;
65535;SDS011;52145;49.342;9.116;2023-03-01T11:17:05;20.70;;;13.82;;
65535;SDS011;52145;49.342;9.116;2023-03-01T11:19:31;21.95;;;13.13;;
65535;SDS011;52145;49.342;9.116;2023-03-01T11:27:23;19.77;;;13.43;;
65535;SDS011;52145;49.342;9.116;2023-03-01T11:35:34;19.58;;;13.85;;
65535;SDS011;52145;49.342;9.116;2023-03-01T11:40:41;18.75;;;13.23;;
65535;SDS011;52145;49.342;9.116;2023-03-01T11:43:27;20.27;;;14.13;;
65535;SDS011;52145;49.342;9.116;2023-03-01T11:59:57;20.05;;;13.50;;
65535;SDS011;52145;49.342;9.116;2023-03-01T12:02:40;18.80;;;12.77;;
65535;SDS011;52145;49.342;9.116;2023-03-01T12:07:46;17.42;;;13.15;;
65535;SDS011;52145;49.342;9.116;2023-03-01T12:19:00;19.27;;;13.65;;
65535;SDS011;52145;49.342;9.116;2023-03-01T12:33:06;15.52;;;12.00;;
65535;SDS011;52145;49.342;9.116;2023-03-01T12:38:30;18.30;;;12.13;;
65535;SDS011;52145;49.342;9.116;2023-03-01T12:43:36;17.13;;;12.55;;
65535;SDS011;52145;49.342;9.116;2023-03-01T12:49:13;21.45;;;13.43;;
65535;SDS011;52145;49.342;9.116;2023-03-01T12:51:56;16.02;;;12.27;;
65535;SDS011;52145;49.342;9.116;2023-03-01T12:54:30;16.17;;;11.95;;
65535;SDS011;52145;49.342;9.116;2023-03-01T12:56:59;22.08;;;13.05;;
65535;SDS011;52145;49.342;9.116;2023-03-01T13:02:34;20.17;;;12.00;;
65535;SDS011;52145;49.342;9.116;2023-03-01T13:13:21;16.77;;;12.48;;
65535;SDS011;52145;49.342;9.116;2023-03-01T13:15:48;19.40;;;11.48;;
65535;SDS011;52145;49.342;9.116;2023-03-01T13:28:39;18.70;;;12.40;;
65535;SDS011;52145;49.342;9.116;2023-03-01T13:46:51;18.08;;;12.10;;
65535;SDS011;52145;49.342;9.116;2023-03-01T13:49:43;18.92;;;12.23;;
65535;SDS011;52145;49.342;9.116;2023-03-01T13:54:58;17.20;;;12.27;;
65535;SDS011;52145;49.342;9.116;2023-03-01T13:57:34;20.63;;;12.27;;
65535;SDS011;52145;49.342;9.116;2023-03-01T14:00:04;16.63;;;12.27;;
65535;SDS011;52145;49.342;9.116;2023-03-01T14:02:30;18.23;;;13.15;;
65535;SDS011;52145;49.342;9.116;2023-03-01T14:04:57;18.60;;;12.00;;
65535;SDS011;52145;49.342;9.116;2023-03-01T14:07:24;17.15;;;12.57;;
65535;SDS011;52145;49.342;9.116;2023-03-01T14:09:58;18.88;;;12.57;;
65535;SDS011;52145;49.342;9.116;2023-03-01T14:17:52;17.83;;;12.45;;
65535;SDS011;52145;49.342;9.116;2023-03-01T14:20:32;18.17;;;12.13;;
65535;SDS011;52145;49.342;9.116;2023-03-01T14:23:09;17.45;;;11.48;;
65535;SDS011;52145;49.342;9.116;2023-03-01T14:25:37;16.10;;;11.90;;
65535;SDS011;52145;49.342;9.116;2023-03-01T14:28:17;16.40;;;11.27;;
65535;SDS011;52145;49.342;9.116;2023-03-01T14:30:59;15.68;;;11.10;;
65535;SDS011;52145;49.342;9.116;2023-03-01T14:33:33;16.38;;;11.98;;
65535;SDS011;52145;49.342;9.116;2023-03-01T14:36:02;19.40;;;12.10;;
65535;SDS011;52145;49.342;9.116;2023-03-01T14:38:29;15.60;;;11.15;;
65535;SDS011;52145;49.342;9.116;2023-03-01T14:43:33;17.30;;;11.20;;
65535;SDS011;52145;49.342;9.116;2023-03-01T14:46:00;17.58;;;11.85;;
65535;SDS011;52145;49.342;9.116;2023-03-01T14:48:27;18.08;;;11.70;;
65535;SDS011;52145;49.342;9.116;2023-03-01T14:50:54;15.80;;;11.35;;
65535;SDS011;52145;49.342;9.116;2023-03-01T14:53:29;15.43;;;11.57;;
65535;SDS011;52145;49.342;9.116;2023-03-01T14:55:56;16.70;;;11.68;;
65535;SDS011;52145;49.342;9.116;2023-03-01T14:58:27;16.52;;;11.75;;
65535;SDS011;52145;49.342;9.116;2023-03-01T15:00:56;15.82;;;11.98;;
65535;SDS011;52145;49.342;9.116;2023-03-01T15:03:25;17.77;;;12.18;;
65535;SDS011;52145;49.342;9.116;2023-03-01T15:06:05;15.10;;;11.20;;
65535;SDS011;52145;49.342;9.116;2023-03-01T15:08:32;16.85;;;12.38;;
65535;SDS011;52145;49.342;9.116;2023-03-01T15:11:15;18.10;;;11.82;;
65535;SDS011;52145;49.342;9.116;2023-03-01T15:13:42;16.38;;;11.90;;
65535;SDS011;52145;49.342;9.116;2023-03-01T15:16:12;18.98;;;12.60;;
65535;SDS011;52145;49.342;9.116;2023-03-01T15:18:49;17.00;;;11.95;;
65535;SDS011;52145;49.342;9.116;2023-03-01T15:21:36;17.23;;;11.32;;
65535;SDS011;52145;49.342;9.116;2023-03-01T15:24:07;20.10;;;12.23;;
65535;SDS011;52145;49.342;9.116;2023-03-01T15:26:44;17.42;;;10.13;;
65535;SDS011;52145;49.342;9.116;2023-03-01T15:29:19;16.58;;;12.15;;
65535;SDS011;52145;49.342;9.116;2023-03-01T15:32:01;14.98;;;10.95;;
65535;SDS011;52145;49.342;9.116;2023-03-01T15:34:30;16.98;;;11.25;;
65535;SDS011;52145;49.342;9.116;2023-03-01T15:37:02;18.88;;;10.98;;
65535;SDS011;52145;49.342;9.116;2023-03-01T15:42:02;17.48;;;11.13;;
65535;SDS011;52145;49.342;9.116;2023-03-01T15:44:36;16.13;;;10.98;;
65535;SDS011;52145;49.342;9.116;2023-03-01T15:47:06;17.35;;;11.13;;
65535;SDS011;52145;49.342;9.116;2023-03-01T15:49:47;20.35;;;11.85;;
65535;SDS011;52145;49.342;9.116;2023-03-01T15:52:19;18.83;;;12.13;;
65535;SDS011;52145;49.342;9.116;2023-03-01T15:55:01;18.02;;;11.00;;
65535;SDS011;52145;49.342;9.116;2023-03-01T15:57:29;21.40;;;11.15;;
65535;SDS011;52145;49.342;9.116;2023-03-01T15:59:54;17.10;;;11.13;;
65535;SDS011;52145;49.342;9.116;2023-03-01T16:02:20;20.05;;;12.35;;
65535;SDS011;52145;49.342;9.116;2023-03-01T16:04:47;17.55;;;11.23;;
65535;SDS011;52145;49.342;9.116;2023-03-01T16:07:15;15.57;;;10.40;;
65535;SDS011;52145;49.342;9.116;2023-03-01T16:09:41;17.70;;;10.88;;
65535;SDS011;52145;49.342;9.116;2023-03-01T16:12:11;20.58;;;12.05;;
65535;SDS011;52145;49.342;9.116;2023-03-01T16:14:39;17.67;;;11.45;;
65535;SDS011;52145;49.342;9.116;2023-03-01T16:17:05;17.92;;;11.70;;
65535;SDS011;52145;49.342;9.116;2023-03-01T16:19:30;24.25;;;11.75;;
65535;SDS011;52145;49.342;9.116;2023-03-01T16:21:56;19.25;;;11.68;;
65535;SDS011;52145;49.342;9.116;2023-03-01T16:24:21;18.20;;;11.30;;
65535;SDS011;52145;49.342;9.116;2023-03-01T16:26:47;18.85;;;11.05;;
65535;SDS011;52145;49.342;9.116;2023-03-01T16:29:12;17.42;;;11.02;;
65535;SDS011;52145;49.342;9.116;2023-03-01T16:31:38;17.83;;;10.93;;
65535;SDS011;52145;49.342;9.116;2023-03-01T16:34:03;17.35;;;10.98;;
65535;SDS011;52145;49.342;9.116;2023-03-01T16:36:29;17.88;;;11.10;;
65535;SDS011;52145;49.342;9.116;2023-03-01T16:38:57;19.00;;;11.02;;
65535;SDS011;52145;49.342;9.116;2023-03-01T16:41:25;17.85;;;10.77;;
65535;SDS011;52145;49.342;9.116;2023-03-01T16:43:52;21.88;;;11.25;;
65535;SDS011;52145;49.342;9.116;2023-03-01T16:46:19;17.33;;;10.98;;
65535;SDS011;52145;49.342;9.116;2023-03-01T16:48:49;18.10;;;10.35;;
65535;SDS011;52145;49.342;9.116;2023-03-01T16:51:16;18.48;;;11.02;;
65535;SDS011;52145;49.342;9.116;2023-03-01T16:53:41;18.30;;;11.57;;
65535;SDS011;52145;49.342;9.116;2023-03-01T16:56:08;22.38;;;11.65;;
65535;SDS011;52145;49.342;9.116;2023-03-01T16:58:35;19.70;;;11.73;;
65535;SDS011;52145;49.342;9.116;2023-03-01T17:01:06;18.38;;;10.40;;
65535;SDS011;52145;49.342;9.116;2023-03-01T17:03:33;19.20;;;10.98;;
65535;SDS011;52145;49.342;9.116;2023-03-01T17:06:03;19.65;;;11.20;;
65535;SDS011;52145;49.342;9.116;2023-03-01T17:08:30;17.27;;;9.70;;
65535;SDS011;52145;49.342;9.116;2023-03-01T17:11:01;17.73;;;10.40;;
65535;SDS011;52145;49.342;9.116;2023-03-01T17:13:34;19.65;;;10.80;;
65535;SDS011;52145;49.342;9.116;2023-03-01T17:16:02;17.42;;;10.93;;
65535;SDS011;52145;49.342;9.116;2023-03-01T17:18:29;19.45;;;10.98;;
65535;SDS011;52145;49.342;9.116;2023-03-01T17:20:55;18.40;;;10.75;;
65535;SDS011;52145;49.342;9.116;2023-03-01T17:23:20;21.20;;;11.13;;
65535;SDS011;52145;49.342;9.116;2023-03-01T17:25:46;18.98;;;10.93;;
65535;SDS011;52145;49.342;9.116;2023-03-01T17:28:12;19.02;;;10.32;;
65535;SDS011;52145;49.342;9.116;2023-03-01T17:30:42;17.33;;;9.63;;
65535;SDS011;52145;49.342;9.116;2023-03-01T17:33:09;18.77;;;10.57;;
65535;SDS011;52145;49.342;9.116;2023-03-01T17:35:36;18.90;;;11.23;;
65535;SDS011;52145;49.342;9.116;2023-03-01T17:38:02;21.00;;;11.48;;
65535;SDS011;52145;49.342;9.116;2023-03-01T17:40:28;18.40;;;10.43;;
65535;SDS011;52145;49.342;9.116;2023-03-01T17:42:54;18.42;;;9.63;;
65535;SDS011;52145;49.342;9.116;2023-03-01T17:45:21;17.88;;;10.43;;
65535;SDS011;52145;49.342;9.116;2023-03-01T17:47:46;21.45;;;11.00;;
65535;SDS011;52145;49.342;9.116;2023-03-01T17:50:12;17.33;;;10.80;;
65535;SDS011;52145;49.342;9.116;2023-03-01T17:52:38;17.83;;;10.40;;
65535;SDS011;52145;49.342;9.116;2023-03-01T17:55:05;17.60;;;10.32;;
65535;SDS011;52145;49.342;9.116;2023-03-01T17:57:31;22.60;;;13.02;;
65535;SDS011;52145;49.342;9.116;2023-03-01T17:59:57;29.00;;;15.75;;
65535;SDS011;52145;49.342;9.116;2023-03-01T18:02:23;28.20;;;15.18;;
65535;SDS011;52145;49.342;9.116;2023-03-01T18:04:50;26.15;;;13.68;;
65535;SDS011;52145;49.342;9.116;2023-03-01T18:07:17;23.08;;;11.35;;
65535;SDS011;52145;49.342;9.116;2023-03-01T18:09:43;22.90;;;11.25;;
65535;SDS011;52145;49.342;9.116;2023-03-01T18:12:08;22.30;;;11.63;;
65535;SDS011;52145;49.342;9.116;2023-03-01T18:14:35;19.55;;;11.98;;
65535;SDS011;52145;49.342;9.116;2023-03-01T18:17:00;21.98;;;12.27;;
65535;SDS011;52145;49.342;9.116;2023-03-01T18:19:30;21.23;;;11.45;;
65535;SDS011;52145;49.342;9.116;2023-03-01T18:21:55;20.55;;;11.35;;
65535;SDS011;52145;49.342;9.116;2023-03-01T18:24:21;20.45;;;11.05;;
65535;SDS011;52145;49.342;9.116;2023-03-01T18:26:47;23.13;;;10.93;;
65535;SDS011;52145;49.342;9.116;2023-03-01T18:29:12;22.30;;;11.82;;
65535;SDS011;52145;49.342;9.116;2023-03-01T18:31:38;22.38;;;11.57;;
65535;SDS011;52145;49.342;9.116;2023-03-01T18:34:04;20.23;;;11.30;;
65535;SDS011;52145;49.342;9.116;2023-03-01T18:36:31;20.65;;;11.73;;
65535;SDS011;52145;49.342;9.116;2023-03-01T18:38:57;21.90;;;11.55;;
65535;SDS011;52145;49.342;9.116;2023-03-01T18:41:25;24.05;;;12.27;;
65535;SDS011;52145;49.342;9.116;2023-03-01T18:43:52;18.50;;;10.43;;
65535;SDS011;52145;49.342;9.116;2023-03-01T18:46:19;22.42;;;11.75;;
65535;SDS011;52145;49.342;9.116;2023-03-01T18:48:45;24.75;;;11.98;;
65535;SDS011;52145;49.342;9.116;2023-03-01T18:51:22;20.02;;;11.93;;
65535;SDS011;52145;49.342;9.116;2023-03-01T18:53:50;21.00;;;11.95;;
65535;SDS011;52145;49.342;9.116;2023-03-01T18:56:15;24.85;;;11.73;;
65535;SDS011;52145;49.342;9.116;2023-03-01T18:58:41;19.80;;;12.23;;
65535;SDS011;52145;49.342;9.116;2023-03-01T19:01:14;24.63;;;11.77;;
65535;SDS011;52145;49.342;9.116;2023-03-01T19:03:44;21.33;;;11.32;;
65535;SDS011;52145;49.342;9.116;2023-03-01T19:06:09;19.88;;;10.98;;
65535;SDS011;52145;49.342;9.116;2023-03-01T19:08:35;20.77;;;11.65;;
65535;SDS011;52145;49.342;9.116;2023-03-01T19:11:03;20.85;;;12.82;;